Weather at Fenland Airfield

Public forecast

Using degrees Celsius for public forecast. Weather courtesy of forecast.io.

Closest aviation weather report (METAR) to Fenland Airfield

Report is more than 6 hours old.

Closest report is RAF Wittering, 18.0 nm (33.2 km) WSW.

2022/11/14 15:20 (retrieved 2 years ago)

EGXT 141520Z AUTO 14003KT 0200 FG OVC001/// 10/10 Q1005

Closest aviation forecast (TAF) to Fenland Airfield

Forecast is more than 12 hours old.

Closest forecast is RAF Coningsby, 21.8 nm (40.4 km) NNW.

2023/02/22 20:09 Ammendment (retrieved 1 year ago)

AMD EGXC 222003Z 2220/2312 34010KT 9999 BKN040 TEMPO 2220/2305 6000 -RA BKN010 PROB30 TEMPO 2220/2301 3000 -RADZ BKN004 PROB30 TEMPO 2305/2308 SCT015